createdAt,value
2022-08-20T00:02:14.762Z,60.16
2022-08-20T00:04:44.185Z,60.54
2022-08-20T00:07:12.240Z,60.95
2022-08-20T00:09:41.760Z,61.43
2022-08-20T00:12:11.021Z,61.97
2022-08-20T00:14:40.458Z,62.48
2022-08-20T00:17:08.491Z,62.69
2022-08-20T00:19:36.409Z,63.12
2022-08-20T00:22:06.208Z,62.97
2022-08-20T00:24:34.912Z,63.34
2022-08-20T00:27:03.374Z,63.28
2022-08-20T00:29:31.398Z,62.92
2022-08-20T00:31:59.580Z,63.81
2022-08-20T00:34:27.835Z,63.83
2022-08-20T00:36:55.778Z,63.92
2022-08-20T00:39:24.970Z,64.12
2022-08-20T00:41:53.024Z,64.37
2022-08-20T00:44:23.152Z,64.35
2022-08-20T00:46:52.339Z,64.49
2022-08-20T00:49:24.671Z,64.73
2022-08-20T00:51:58.570Z,64.93
2022-08-20T00:54:31.238Z,64.69
2022-08-20T00:57:03.398Z,64.86
2022-08-20T00:59:33.874Z,64.46
2022-08-20T01:02:03.257Z,64.29
2022-08-20T01:04:34.136Z,63.94
2022-08-20T01:07:02.916Z,64.36
2022-08-20T01:09:33.408Z,64.29
2022-08-20T01:12:19.610Z,64.96
2022-08-20T01:14:48.415Z,65.07
2022-08-20T01:17:20.264Z,64.84
2022-08-20T01:19:52.562Z,64.51
2022-08-20T01:22:46.946Z,64.97
2022-08-20T01:25:22.629Z,65.13
2022-08-20T01:27:55.130Z,64.95
2022-08-20T01:30:28.912Z,64.82
2022-08-20T01:32:57.058Z,64.72
2022-08-20T01:35:27.133Z,64.30
2022-08-20T01:37:55.239Z,64.71
2022-08-20T01:40:36.926Z,65.03
2022-08-20T01:43:09.758Z,65.23
2022-08-20T01:45:40.182Z,65.28
2022-08-20T01:48:09.603Z,65.12
2022-08-20T01:50:41.914Z,65.58
2022-08-20T01:53:18.694Z,65.76
2022-08-20T01:55:46.612Z,65.97
2022-08-20T01:58:15.978Z,66.13
2022-08-20T02:00:43.900Z,65.78
2022-08-20T02:03:11.875Z,66.30
2022-08-20T02:05:39.878Z,66.12
2022-08-20T02:08:07.751Z,65.85
2022-08-20T02:10:36.394Z,65.57
2022-08-20T02:13:08.680Z,65.77
2022-08-20T02:15:39.966Z,65.66
2022-08-20T02:18:15.841Z,65.87
2022-08-20T02:20:45.227Z,65.70
2022-08-20T02:23:15.491Z,66.17
2022-08-20T02:25:48.304Z,66.03
2022-08-20T02:28:19.731Z,66.41
2022-08-20T02:30:51.981Z,66.85
2022-08-20T02:33:24.372Z,66.69
2022-08-20T02:35:56.798Z,66.74
2022-08-20T02:38:25.450Z,67.02
2022-08-20T02:40:53.658Z,66.72
2022-08-20T02:43:21.594Z,67.40
2022-08-20T02:45:51.535Z,66.72
2022-08-20T02:48:23.003Z,67.37
2022-08-20T02:50:54.095Z,67.60
2022-08-20T02:53:22.571Z,67.79
2022-08-20T02:55:51.495Z,67.89
2022-08-20T02:58:20.578Z,67.82
2022-08-20T03:00:50.448Z,67.86
2022-08-20T03:03:22.444Z,68.49
2022-08-20T03:05:53.127Z,68.52
2022-08-20T03:08:22.639Z,68.03
2022-08-20T03:10:52.315Z,68.00
2022-08-20T03:13:20.938Z,68.24
2022-08-20T03:15:57.929Z,67.59
2022-08-20T03:18:28.624Z,67.36
2022-08-20T03:20:56.545Z,66.93
2022-08-20T03:23:25.438Z,67.37
2022-08-20T03:25:53.419Z,67.28
2022-08-20T03:28:21.431Z,67.36
2022-08-20T03:30:51.428Z,67.21
2022-08-20T03:33:20.251Z,67.76
2022-08-20T03:35:49.393Z,68.30
2022-08-20T03:38:21.588Z,68.40
2022-08-20T03:41:01.096Z,68.25
2022-08-20T03:43:29.393Z,68.50
2022-08-20T03:45:58.722Z,68.36
2022-08-20T03:48:27.183Z,69.60
2022-08-20T03:50:57.626Z,69.86
2022-08-20T03:53:25.469Z,70.08
2022-08-20T03:56:00.457Z,69.68
2022-08-20T03:58:35.001Z,70.16
2022-08-20T04:01:07.669Z,68.33
2022-08-20T04:03:58.642Z,67.79
2022-08-20T04:06:27.721Z,67.83
2022-08-20T04:08:56.200Z,68.43
2022-08-20T04:11:24.674Z,68.64
2022-08-20T04:13:52.674Z,68.65
2022-08-20T04:16:22.381Z,68.83
2022-08-20T04:18:56.046Z,68.69
2022-08-20T04:21:33.178Z,68.20
2022-08-20T04:24:02.290Z,68.47
2022-08-20T04:26:30.544Z,68.78
2022-08-20T04:28:58.479Z,69.03
2022-08-20T04:31:33.858Z,68.45
2022-08-20T04:34:03.128Z,68.09
2022-08-20T04:36:31.407Z,69.27
2022-08-20T04:38:59.421Z,68.95
2022-08-20T04:41:26.385Z,68.68
2022-08-20T04:43:56.057Z,68.67
2022-08-20T04:46:28.689Z,68.51
2022-08-20T04:48:58.654Z,68.39
2022-08-20T04:51:27.030Z,68.74
2022-08-20T04:53:56.283Z,69.10
2022-08-20T04:56:26.405Z,68.98
2022-08-20T04:58:55.994Z,69.01
2022-08-20T05:01:26.018Z,69.20
2022-08-20T05:03:55.280Z,69.08
2022-08-20T05:06:26.517Z,68.46
2022-08-20T05:08:54.831Z,68.92
2022-08-20T05:11:35.375Z,69.09
2022-08-20T05:14:07.936Z,68.72
2022-08-20T05:16:40.338Z,68.77
2022-08-20T05:19:10.752Z,68.77
2022-08-20T05:21:40.595Z,68.72
2022-08-20T05:24:10.017Z,68.32
2022-08-20T05:26:37.988Z,68.18
2022-08-20T05:29:06.896Z,68.85
2022-08-20T05:31:36.061Z,69.45
2022-08-20T05:34:09.805Z,68.99
2022-08-20T05:36:41.684Z,67.66
2022-08-20T05:39:10.336Z,67.63
2022-08-20T05:41:38.973Z,67.75
2022-08-20T05:44:10.001Z,66.34
2022-08-20T05:46:40.372Z,66.09
2022-08-20T05:49:08.445Z,65.20
2022-08-20T05:51:37.425Z,64.60
2022-08-20T05:54:07.899Z,63.12
2022-08-20T05:56:37.117Z,63.24
2022-08-20T05:59:07.144Z,65.89
2022-08-20T06:01:37.978Z,73.13
2022-08-20T06:04:24.105Z,74.41
2022-08-20T06:06:53.051Z,79.37
2022-08-20T06:09:31.030Z,78.76
2022-08-20T06:12:02.362Z,81.60
2022-08-20T06:14:31.139Z,78.25
2022-08-20T06:17:04.875Z,80.74
2022-08-20T06:19:33.927Z,80.31
2022-08-20T06:22:02.004Z,80.24
2022-08-20T06:24:31.297Z,79.49
2022-08-20T06:27:00.479Z,80.61
2022-08-20T06:29:29.606Z,80.67
2022-08-20T06:31:58.084Z,80.46
2022-08-20T06:34:28.248Z,80.53
2022-08-20T06:36:59.376Z,79.44
2022-08-20T06:39:29.963Z,77.34
2022-08-20T06:41:59.550Z,77.94
2022-08-20T06:44:28.429Z,76.36
2022-08-20T06:47:00.873Z,79.42
2022-08-20T06:49:28.927Z,78.36
2022-08-20T06:52:03.834Z,81.22
2022-08-20T06:54:34.299Z,79.06
2022-08-20T06:57:04.502Z,73.65
2022-08-20T06:59:32.913Z,72.20
2022-08-20T07:02:00.973Z,74.43
2022-08-20T07:04:29.130Z,75.16
2022-08-20T07:06:57.714Z,70.90
2022-08-20T07:09:27.383Z,70.65
2022-08-20T07:11:56.155Z,70.55
2022-08-20T07:14:26.059Z,69.95
2022-08-20T07:16:53.997Z,70.55
2022-08-20T07:19:22.407Z,69.24
2022-08-20T07:21:50.682Z,69.92
2022-08-20T07:24:18.542Z,70.92
2022-08-20T07:26:46.586Z,70.15
2022-08-20T07:29:14.489Z,69.65
2022-08-20T07:32:01.510Z,70.70
2022-08-20T07:34:31.472Z,71.58
2022-08-20T07:37:00.808Z,68.72
2022-08-20T07:39:30.022Z,68.90
2022-08-20T07:42:03.940Z,67.17
2022-08-20T07:44:31.998Z,67.63
2022-08-20T07:47:01.319Z,67.54
2022-08-20T07:49:30.906Z,67.14
2022-08-20T07:51:58.839Z,65.85
2022-08-20T07:54:27.977Z,65.31
2022-08-20T07:57:02.530Z,65.68
2022-08-20T07:59:31.541Z,65.93
2022-08-20T08:02:00.834Z,66.05
2022-08-20T08:04:29.453Z,65.54
2022-08-20T08:07:00.094Z,64.42
2022-08-20T08:09:29.337Z,63.32
2022-08-20T08:12:00.800Z,62.37
2022-08-20T08:14:32.434Z,61.33
2022-08-20T08:17:05.459Z,59.22
2022-08-20T08:19:42.686Z,58.20
2022-08-20T08:22:13.265Z,60.38
2022-08-20T08:24:43.283Z,58.91
2022-08-20T08:27:25.468Z,57.99
2022-08-20T08:29:54.550Z,56.66
2022-08-20T08:32:24.645Z,55.56
2022-08-20T08:34:52.840Z,53.93
2022-08-20T08:37:21.131Z,53.10
2022-08-20T08:39:49.259Z,52.76
2022-08-20T08:42:27.144Z,52.16
2022-08-20T08:44:55.874Z,50.66
2022-08-20T08:47:29.367Z,52.47
2022-08-20T08:49:58.534Z,52.17
2022-08-20T08:52:31.528Z,52.44
2022-08-20T08:55:03.977Z,53.46
2022-08-20T08:57:32.308Z,54.74
2022-08-20T09:00:06.148Z,53.03
2022-08-20T09:02:38.788Z,52.31
2022-08-20T09:05:19.783Z,51.49
2022-08-20T09:07:51.333Z,50.16
2022-08-20T09:10:23.201Z,51.26
2022-08-20T09:12:52.232Z,51.07
2022-08-20T09:15:21.183Z,52.94
2022-08-20T09:17:50.782Z,54.53
2022-08-20T09:20:19.357Z,52.63
2022-08-20T09:22:47.376Z,52.72
2022-08-20T09:25:17.243Z,51.02
2022-08-20T09:27:45.332Z,49.92
2022-08-20T09:30:17.089Z,50.85
2022-08-20T09:32:46.611Z,52.29
2022-08-20T09:35:15.949Z,51.24
2022-08-20T09:37:43.883Z,52.50
2022-08-20T09:40:13.350Z,54.51
2022-08-20T09:42:41.960Z,55.64
2022-08-20T09:45:11.833Z,56.09
2022-08-20T09:47:54.757Z,54.92
2022-08-20T09:50:26.177Z,53.73
2022-08-20T09:52:56.447Z,53.22
2022-08-20T09:55:32.695Z,53.35
2022-08-20T09:58:03.263Z,51.48
2022-08-20T10:00:31.426Z,51.96
2022-08-20T10:03:00.794Z,51.26
2022-08-20T10:05:30.511Z,52.68
2022-08-20T10:07:58.684Z,50.35
2022-08-20T10:10:27.261Z,49.81
2022-08-20T10:12:55.277Z,50.41
2022-08-20T10:15:23.238Z,50.39
2022-08-20T10:17:51.125Z,51.87
2022-08-20T10:20:19.692Z,53.66
2022-08-20T10:22:48.917Z,53.96
2022-08-20T10:25:17.784Z,55.87
2022-08-20T10:27:45.695Z,56.15
2022-08-20T10:30:14.228Z,55.77
2022-08-20T10:32:42.783Z,55.91
2022-08-20T10:35:10.702Z,55.52
2022-08-20T10:37:38.635Z,54.66
2022-08-20T10:40:09.724Z,53.90
2022-08-20T10:42:42.340Z,52.95
2022-08-20T10:45:11.477Z,51.28
2022-08-20T10:47:39.718Z,50.07
2022-08-20T10:50:11.586Z,49.27
2022-08-20T10:52:39.449Z,49.11
2022-08-20T10:55:10.080Z,49.24
2022-08-20T10:57:41.795Z,50.01
2022-08-20T11:00:13.796Z,49.67
2022-08-20T11:02:42.006Z,50.31
2022-08-20T11:05:10.486Z,50.74
2022-08-20T11:07:50.797Z,49.53
2022-08-20T11:10:26.912Z,48.07
2022-08-20T11:12:55.271Z,49.14
2022-08-20T11:15:23.598Z,48.06
2022-08-20T11:17:51.420Z,49.08
2022-08-20T11:20:21.746Z,48.71
2022-08-20T11:22:49.596Z,47.89
2022-08-20T11:25:17.994Z,47.45
2022-08-20T11:27:50.021Z,48.35
2022-08-20T11:30:20.999Z,47.35
2022-08-20T11:32:49.347Z,48.38
2022-08-20T11:38:05.945Z,48.05
2022-08-20T11:40:34.538Z,49.26
2022-08-20T11:43:14.661Z,47.97
2022-08-20T11:45:43.477Z,46.84
2022-08-20T11:48:11.296Z,45.68
2022-08-20T11:50:39.183Z,44.79
2022-08-20T11:53:07.551Z,43.79
2022-08-20T11:55:36.698Z,43.79
2022-08-20T11:58:06.228Z,41.37
2022-08-20T12:00:34.520Z,40.59
2022-08-20T12:03:04.988Z,42.99
2022-08-20T12:05:33.432Z,42.10
2022-08-20T12:08:02.176Z,41.15
2022-08-20T12:10:30.625Z,40.16
2022-08-20T12:12:58.953Z,41.30
2022-08-20T12:15:28.504Z,40.78
2022-08-20T12:17:56.599Z,41.56
2022-08-20T12:20:25.045Z,41.52
2022-08-20T12:22:53.933Z,41.28
2022-08-20T12:25:21.922Z,42.84
2022-08-20T12:27:49.813Z,41.99
2022-08-20T12:30:20.718Z,42.65
2022-08-20T12:32:50.335Z,42.81
2022-08-20T12:35:19.857Z,43.57
2022-08-20T12:37:48.030Z,43.21
2022-08-20T12:40:18.075Z,42.76
2022-08-20T12:42:58.615Z,42.01
2022-08-20T12:45:26.631Z,41.45
2022-08-20T12:48:02.372Z,40.71
2022-08-20T12:50:31.858Z,40.46
2022-08-20T12:53:00.545Z,38.90
2022-08-20T12:55:28.417Z,38.73
2022-08-20T12:57:59.304Z,38.72
2022-08-20T13:00:30.169Z,36.40
2022-08-20T13:03:02.383Z,35.36
2022-08-20T13:05:30.991Z,34.73
2022-08-20T13:07:59.764Z,35.05
2022-08-20T13:10:30.943Z,34.46
2022-08-20T13:12:59.104Z,34.13
2022-08-20T13:15:27.392Z,33.96
2022-08-20T13:17:57.041Z,35.02
2022-08-20T13:20:31.625Z,36.79
2022-08-20T13:23:02.780Z,37.67
2022-08-20T13:25:30.773Z,36.99
2022-08-20T13:28:00.797Z,37.16
2022-08-20T13:30:29.150Z,38.17
2022-08-20T13:32:57.211Z,34.77
2022-08-20T13:35:26.559Z,35.28
2022-08-20T13:37:54.490Z,35.86
2022-08-20T13:40:22.479Z,36.52
2022-08-20T13:42:50.455Z,36.99
2022-08-20T13:45:18.399Z,37.73
2022-08-20T13:47:47.178Z,34.74
2022-08-20T13:50:18.186Z,33.46
2022-08-20T13:52:48.524Z,33.43
2022-08-20T13:55:20.230Z,32.79
2022-08-20T13:57:49.992Z,33.31
2022-08-20T14:00:21.367Z,31.48
2022-08-20T14:02:59.088Z,30.44
2022-08-20T14:05:27.068Z,27.84
2022-08-20T14:07:56.600Z,27.11
2022-08-20T14:10:31.309Z,23.71
2022-08-20T14:13:00.241Z,20.88
2022-08-20T14:15:28.355Z,21.00
2022-08-20T14:17:58.799Z,21.03
2022-08-20T14:20:31.991Z,22.66
2022-08-20T14:23:03.079Z,26.58
2022-08-20T14:25:32.734Z,26.22
2022-08-20T14:28:09.583Z,21.98
2022-08-20T14:30:37.624Z,20.20
2022-08-20T14:33:05.504Z,20.46
2022-08-20T14:35:33.450Z,20.57
2022-08-20T14:38:05.361Z,20.49
2022-08-20T14:40:34.542Z,20.55
2022-08-20T14:43:03.503Z,18.30
2022-08-20T14:45:31.912Z,19.91
2022-08-20T14:47:59.980Z,22.44
2022-08-20T14:50:30.700Z,25.17
2022-08-20T14:52:59.176Z,28.19
2022-08-20T14:55:30.883Z,30.03
2022-08-20T14:57:59.310Z,29.54
2022-08-20T15:00:29.976Z,26.09
2022-08-20T15:02:58.481Z,23.68
2022-08-20T15:05:26.852Z,21.80
2022-08-20T15:07:55.007Z,21.39
2022-08-20T15:10:24.961Z,20.67
2022-08-20T15:12:55.176Z,18.88
2022-08-20T15:15:23.487Z,19.56
2022-08-20T15:17:53.494Z,20.10
2022-08-20T15:20:25.729Z,20.40
2022-08-20T15:22:54.297Z,23.21
2022-08-20T15:25:24.438Z,21.43
2022-08-20T15:27:52.660Z,20.44
2022-08-20T15:30:24.069Z,21.56
2022-08-20T15:32:54.986Z,20.54
2022-08-20T15:35:24.427Z,22.87
2022-08-20T15:37:54.829Z,26.55
2022-08-20T15:40:28.143Z,28.73
2022-08-20T15:42:56.565Z,30.42
2022-08-20T15:45:26.207Z,31.71
2022-08-20T15:47:57.218Z,31.42
2022-08-20T15:50:51.554Z,32.75
2022-08-20T15:53:27.626Z,33.11
2022-08-20T15:56:03.359Z,33.28
2022-08-20T15:58:38.587Z,34.12
2022-08-20T16:01:25.333Z,34.36
2022-08-20T16:04:28.025Z,34.39
2022-08-20T16:07:01.799Z,33.50
2022-08-20T16:09:45.624Z,34.04
2022-08-20T16:12:18.984Z,34.38
2022-08-20T16:14:49.917Z,34.28
2022-08-20T16:17:26.096Z,33.95
2022-08-20T16:20:01.906Z,34.70
2022-08-20T16:22:32.288Z,34.79
2022-08-20T16:25:00.348Z,35.00
2022-08-20T16:27:36.948Z,35.11
2022-08-20T16:30:09.480Z,34.97
2022-08-20T16:32:41.985Z,33.95
2022-08-20T16:35:29.870Z,34.03
2022-08-20T16:38:04.773Z,34.35
2022-08-20T16:40:39.925Z,34.66
2022-08-20T16:43:11.544Z,34.52
2022-08-20T16:45:51.010Z,35.07
2022-08-20T16:48:21.312Z,35.28
2022-08-20T16:50:58.106Z,35.68
2022-08-20T16:53:27.280Z,35.73
2022-08-20T16:55:57.303Z,34.98
2022-08-20T16:58:27.241Z,35.48
2022-08-20T17:01:11.323Z,35.63
2022-08-20T17:03:50.802Z,35.86
2022-08-20T17:06:28.625Z,35.72
2022-08-20T17:08:56.943Z,36.17
2022-08-20T17:11:31.015Z,35.81
2022-08-20T17:14:11.719Z,36.54
2022-08-20T17:16:46.374Z,36.65
2022-08-20T17:19:28.603Z,36.98
2022-08-20T17:21:57.463Z,37.02
2022-08-20T17:24:27.762Z,36.88
2022-08-20T17:27:01.422Z,37.00
2022-08-20T17:29:31.399Z,36.10
2022-08-20T17:32:01.443Z,36.33
2022-08-20T17:34:32.605Z,36.04
2022-08-20T17:37:06.250Z,36.01
2022-08-20T17:39:34.520Z,36.22
2022-08-20T17:42:08.075Z,36.18
2022-08-20T17:44:40.348Z,36.33
2022-08-20T17:47:13.798Z,35.73
2022-08-20T17:50:02.319Z,36.37
2022-08-20T17:52:38.774Z,36.06
2022-08-20T17:55:09.333Z,36.75
2022-08-20T17:57:41.235Z,36.88
2022-08-20T18:00:14.277Z,37.17
2022-08-20T18:02:42.462Z,37.35
2022-08-20T18:05:17.061Z,37.43
2022-08-20T18:08:06.963Z,37.69
2022-08-20T18:10:43.494Z,38.60
2022-08-20T18:13:19.170Z,39.29
2022-08-20T18:15:51.532Z,39.56
2022-08-20T18:18:32.347Z,40.15
2022-08-20T18:21:21.701Z,40.66
2022-08-20T18:23:57.185Z,40.84
2022-08-20T18:26:29.421Z,41.28
2022-08-20T18:29:03.723Z,41.58
2022-08-20T18:31:35.650Z,42.26
2022-08-20T18:34:11.968Z,42.68
2022-08-20T18:36:42.660Z,42.81
2022-08-20T18:39:24.742Z,43.31
2022-08-20T18:41:58.742Z,44.02
2022-08-20T18:44:37.213Z,44.54
2022-08-20T18:47:08.027Z,44.82
2022-08-20T18:49:38.254Z,45.19
2022-08-20T18:52:13.207Z,45.42
2022-08-20T18:54:43.697Z,45.40
2022-08-20T18:57:21.081Z,45.89
2022-08-20T18:59:53.533Z,46.25
2022-08-20T19:02:29.206Z,46.20
2022-08-20T19:05:02.525Z,46.73
2022-08-20T19:07:48.089Z,47.23
2022-08-20T19:10:39.576Z,47.31
2022-08-20T19:13:20.419Z,48.17
2022-08-20T19:15:51.792Z,48.39
2022-08-20T19:18:25.869Z,48.67
2022-08-20T19:20:57.364Z,49.18
2022-08-20T19:23:29.877Z,48.83
2022-08-20T19:26:00.886Z,49.11
2022-08-20T19:28:32.778Z,49.58
2022-08-20T19:31:11.121Z,49.24
2022-08-20T19:33:44.153Z,49.61
2022-08-20T19:36:15.500Z,49.56
2022-08-20T19:38:50.752Z,50.14
2022-08-20T19:41:28.153Z,50.08
2022-08-20T19:44:00.406Z,49.93
2022-08-20T19:46:32.071Z,49.14
2022-08-20T19:49:18.095Z,49.81
2022-08-20T19:51:56.591Z,49.64
2022-08-20T19:54:28.162Z,49.71
2022-08-20T19:56:58.333Z,50.24
2022-08-20T19:59:26.760Z,50.37
2022-08-20T20:02:00.000Z,50.40
2022-08-20T20:04:30.294Z,50.66
2022-08-20T20:06:59.091Z,50.77
2022-08-20T20:09:30.513Z,50.78
2022-08-20T20:12:02.593Z,50.65
2022-08-20T20:14:33.470Z,50.99
2022-08-20T20:17:05.128Z,51.20
2022-08-20T20:19:33.164Z,51.04
2022-08-20T20:22:19.023Z,50.94
2022-08-20T20:25:03.649Z,51.06
2022-08-20T20:27:33.150Z,51.35
2022-08-20T20:30:03.216Z,51.66
2022-08-20T20:32:33.892Z,51.68
2022-08-20T20:35:06.495Z,51.53
2022-08-20T20:37:48.807Z,52.16
2022-08-20T20:40:25.843Z,52.12
2022-08-20T20:43:04.309Z,51.60
2022-08-20T20:45:36.160Z,51.98
2022-08-20T20:48:16.028Z,51.88
2022-08-20T20:50:44.063Z,52.31
2022-08-20T20:53:13.128Z,52.31
2022-08-20T20:55:53.747Z,52.01
2022-08-20T20:58:21.703Z,51.72
2022-08-20T21:00:51.553Z,51.91
2022-08-20T21:03:19.489Z,52.05
2022-08-20T21:05:47.954Z,52.13
2022-08-20T21:08:16.008Z,52.70
2022-08-20T21:10:45.267Z,52.03
2022-08-20T21:13:13.344Z,52.58
2022-08-20T21:15:41.322Z,52.43
2022-08-20T21:18:10.144Z,52.81
2022-08-20T21:20:38.213Z,52.56
2022-08-20T21:23:06.943Z,53.27
2022-08-20T21:25:36.210Z,52.61
2022-08-20T21:28:06.133Z,52.68
2022-08-20T21:30:34.237Z,52.84
2022-08-20T21:33:02.188Z,52.93
2022-08-20T21:35:30.085Z,53.08
2022-08-20T21:37:57.951Z,53.22
2022-08-20T21:40:28.419Z,53.56
2022-08-20T21:42:57.078Z,54.24
2022-08-20T21:45:28.319Z,54.25
2022-08-20T21:47:57.094Z,54.77
2022-08-20T21:50:25.755Z,55.03
2022-08-20T21:52:59.910Z,55.42
2022-08-20T21:55:30.101Z,55.80
2022-08-20T21:57:59.171Z,55.36
2022-08-20T22:00:55.500Z,55.15
2022-08-20T22:03:25.328Z,55.39
2022-08-20T22:05:56.694Z,55.29
2022-08-20T22:08:28.541Z,55.63
2022-08-20T22:10:57.876Z,55.67
2022-08-20T22:13:28.235Z,55.95
2022-08-20T22:15:57.480Z,55.91
2022-08-20T22:18:25.924Z,55.67
2022-08-20T22:20:54.047Z,56.04
2022-08-20T22:23:22.313Z,56.08
2022-08-20T22:25:50.568Z,56.27
2022-08-20T22:28:18.968Z,55.97
2022-08-20T22:30:47.081Z,56.22
2022-08-20T22:33:22.107Z,56.36
2022-08-20T22:35:52.290Z,56.23
2022-08-20T22:38:20.472Z,56.36
2022-08-20T22:40:48.732Z,56.99
2022-08-20T22:43:17.140Z,56.65
2022-08-20T22:45:48.284Z,56.68
2022-08-20T22:48:19.531Z,56.90
2022-08-20T22:50:48.271Z,57.24
2022-08-20T22:53:18.375Z,57.14
2022-08-20T22:55:46.614Z,57.47
2022-08-20T22:58:15.703Z,57.71
2022-08-20T23:00:45.304Z,58.01
2022-08-20T23:03:14.920Z,58.05
2022-08-20T23:05:48.570Z,58.16
2022-08-20T23:08:16.965Z,58.02
2022-08-20T23:10:45.579Z,57.82
2022-08-20T23:13:13.720Z,57.92
2022-08-20T23:15:45.634Z,57.96
2022-08-20T23:18:15.850Z,58.00
2022-08-20T23:20:47.219Z,57.89
2022-08-20T23:23:16.818Z,58.23
2022-08-20T23:25:44.725Z,58.39
2022-08-20T23:28:12.908Z,58.89
2022-08-20T23:30:41.006Z,59.13
2022-08-20T23:33:09.174Z,59.38
2022-08-20T23:35:40.502Z,59.25
2022-08-20T23:38:09.085Z,59.60
2022-08-20T23:40:38.469Z,60.24
2022-08-20T23:43:07.562Z,60.30
2022-08-20T23:45:36.099Z,60.82
2022-08-20T23:48:09.136Z,61.10
2022-08-20T23:50:39.266Z,61.28
2022-08-20T23:53:07.234Z,61.35
2022-08-20T23:55:35.508Z,61.90
2022-08-20T23:58:04.730Z,61.83
